Time;durP1;ratioP1;P1;durP2;ratioP2;P2;SDS_P1;SDS_P2;PMS_P1;PMS_P2;Temp;Humidity;BMP_temperature;BMP_pressure;BME280_temperature;BME280_humidity;BME280_pressure;Samples;Min_cycle;Max_cycle;Signal;HPM_P1;HPM_P2
2022/03/30 00:07:14;;;;;;;35.50;7.40;;;10.90;99.90;;;;;;20833448;28;20124;-74
2022/03/30 00:17:15;;;;;;;40.37;7.87;;;10.80;99.90;;;;;;20832059;28;20036;-74
2022/03/30 00:27:16;;;;;;;32.10;6.83;;;10.90;99.90;;;;;;20831717;28;20463;-74
2022/03/30 00:37:17;;;;;;;30.57;7.70;;;10.80;99.90;;;;;;20813608;28;20124;-74
2022/03/30 00:47:36;;;;;;;42.77;7.67;;;10.80;99.90;;;;;;20830429;28;20033;-74
2022/03/30 00:57:37;;;;;;;31.80;6.63;;;10.80;99.90;;;;;;20829344;28;20483;-74
2022/03/30 01:07:38;;;;;;;38.67;6.67;;;10.90;99.90;;;;;;20810902;28;20048;-74
2022/03/30 01:17:40;;;;;;;30.23;7.80;;;10.70;99.90;;;;;;20830324;28;20104;-74
2022/03/30 01:27:41;;;;;;;67.20;7.25;;;10.90;99.90;;;;;;20826718;28;20029;-74
2022/03/30 01:37:41;;;;;;;30.93;7.17;;;10.90;99.90;;;;;;20826520;28;20032;-74
2022/03/30 01:47:49;;;;;;;39.67;7.43;;;10.80;99.90;;;;;;20825435;28;20021;-74
2022/03/30 01:57:50;;;;;;;36.22;7.22;;;10.50;99.90;;;;;;20825119;28;20388;-74
2022/03/30 02:07:51;;;;;;;29.03;7.10;;;10.50;99.90;;;;;;20824701;28;20037;-74
2022/03/30 02:17:52;;;;;;;30.43;7.63;;;10.20;99.90;;;;;;20831527;28;20427;-74
2022/03/30 02:27:53;;;;;;;47.43;7.93;;;10.20;99.90;;;;;;20841652;28;20025;-74
2022/03/30 02:37:55;;;;;;;28.83;7.70;;;10.20;99.90;;;;;;20840171;28;20030;-75
2022/03/30 03:08:23;;;;;;;32.70;7.15;;;10.40;99.90;;;;;;20771637;28;20057;-76
2022/03/30 03:18:24;;;;;;;34.00;7.00;;;10.60;99.90;;;;;;20738146;28;20036;-76
2022/03/30 03:28:25;;;;;;;32.93;7.03;;;10.50;99.90;;;;;;20754074;28;20392;-76
2022/03/30 03:38:26;;;;;;;36.27;8.50;;;10.30;99.90;;;;;;20755194;28;20026;-76
2022/03/30 03:48:27;;;;;;;33.87;7.47;;;10.10;99.90;;;;;;20754373;28;20026;-76
2022/03/30 03:58:27;;;;;;;24.93;7.60;;;10.20;99.90;;;;;;20778243;28;20061;-75
2022/03/30 04:08:28;;;;;;;31.23;8.87;;;9.70;99.90;;;;;;20808418;28;20053;-74
2022/03/30 04:18:29;;;;;;;25.93;7.23;;;9.60;99.90;;;;;;20904939;28;20025;-75
2022/03/30 04:28:30;;;;;;;35.90;6.70;;;9.40;99.90;;;;;;20914519;28;20028;-75
2022/03/30 04:38:32;;;;;;;32.88;7.88;;;9.30;99.90;;;;;;20912577;28;20036;-75
2022/03/30 04:48:33;;;;;;;;;;;9.30;99.90;;;;;;20912479;28;20040;-75
2022/03/30 04:58:34;;;;;;;29.20;8.35;;;9.40;99.90;;;;;;20912149;28;19966;-75
2022/03/30 05:08:36;;;;;;;27.98;7.45;;;9.20;99.90;;;;;;20894571;28;20049;-75
2022/03/30 05:18:37;;;;;;;42.00;8.10;;;9.20;99.90;;;;;;20912752;28;20050;-75
2022/03/30 05:28:40;;;;;;;27.77;7.97;;;9.20;99.90;;;;;;20910972;28;20028;-75
2022/03/30 05:38:41;;;;;;;38.75;9.60;;;9.20;99.90;;;;;;20911164;28;20033;-75
2022/03/30 05:48:42;;;;;;;43.43;9.70;;;9.20;99.90;;;;;;20898870;28;20516;-76
2022/03/30 05:58:42;;;;;;;36.13;9.87;;;9.10;99.90;;;;;;20742496;28;20040;-75
2022/03/30 06:08:43;;;;;;;31.87;10.37;;;9.10;99.90;;;;;;20753287;28;20017;-75
2022/03/30 06:18:44;;;;;;;34.33;10.83;;;9.10;99.90;;;;;;20787218;28;20024;-75
2022/03/30 06:28:47;;;;;;;33.97;11.30;;;8.90;99.90;;;;;;20770873;28;20053;-75
2022/03/30 06:38:48;;;;;;;37.75;10.35;;;8.90;99.90;;;;;;20789155;28;20026;-74
2022/03/30 06:48:51;;;;;;;37.83;11.30;;;9.00;99.90;;;;;;20785205;28;20395;-75
2022/03/30 06:58:52;;;;;;;37.40;12.57;;;9.00;99.90;;;;;;20765974;28;20033;-75
2022/03/30 07:19:12;;;;;;;35.83;12.52;;;9.10;99.90;;;;;;20778319;28;20040;-75
2022/03/30 07:29:16;;;;;;;24.47;12.80;;;9.10;99.90;;;;;;20784012;28;20041;-75
2022/03/30 07:39:17;;;;;;;34.47;13.60;;;9.10;99.90;;;;;;20815883;28;20034;-74
2022/03/30 07:49:18;;;;;;;35.07;14.97;;;9.00;99.90;;;;;;20821861;28;20029;-74
2022/03/30 07:59:19;;;;;;;44.90;15.13;;;9.00;99.90;;;;;;20841029;28;20087;-74
2022/03/30 08:09:20;;;;;;;45.70;15.97;;;9.00;99.90;;;;;;20841794;28;20033;-74
2022/03/30 08:19:21;;;;;;;38.00;15.77;;;9.10;99.90;;;;;;20841243;28;20026;-74
2022/03/30 08:29:22;;;;;;;30.50;11.37;;;9.10;99.90;;;;;;20836107;28;20031;-75
2022/03/30 08:39:22;;;;;;;36.47;11.87;;;9.30;99.90;;;;;;20837133;28;20135;-74
2022/03/30 08:49:24;;;;;;;37.77;13.30;;;9.30;99.90;;;;;;20818799;28;20041;-74
2022/03/30 08:59:25;;;;;;;30.92;13.93;;;9.30;99.90;;;;;;20836799;28;20037;-74
2022/03/30 09:09:35;;;;;;;33.05;13.02;;;9.50;99.90;;;;;;20816320;28;20033;-74
2022/03/30 09:19:38;;;;;;;28.88;11.65;;;9.60;99.90;;;;;;20828027;28;20037;-74
2022/03/30 09:29:39;;;;;;;34.33;11.55;;;10.00;99.90;;;;;;20795870;22;20073;-75
2022/03/30 09:39:41;;;;;;;34.67;11.30;;;10.20;99.90;;;;;;20728314;28;20645;-75
2022/03/30 09:49:45;;;;;;;26.37;10.77;;;10.20;99.90;;;;;;20743476;28;20392;-75
2022/03/30 09:59:55;;;;;;;33.13;11.30;;;10.30;99.90;;;;;;20744052;28;20288;-75
2022/03/30 10:09:58;;;;;;;33.13;11.18;;;10.60;99.90;;;;;;20726209;28;20042;-74
2022/03/30 10:20:01;;;;;;;28.65;11.13;;;10.60;99.90;;;;;;20743304;28;20026;-75
2022/03/30 10:30:06;;;;;;;25.30;11.30;;;10.60;99.90;;;;;;20742819;28;20042;-76
2022/03/30 10:40:08;;;;;;;32.60;9.60;;;10.70;99.90;;;;;;20751152;28;20030;-75
2022/03/30 10:50:09;;;;;;;26.80;11.00;;;10.90;99.90;;;;;;20732734;28;20085;-75
2022/03/30 11:00:38;;;;;;;30.67;10.00;;;11.50;99.90;;;;;;20676205;28;20289;-75
2022/03/30 11:10:47;;;;;;;28.02;8.27;;;12.00;99.90;;;;;;20668971;28;20034;-78
2022/03/30 11:21:12;;;;;;;27.45;9.40;;;11.90;99.90;;;;;;20675791;28;20033;-74
2022/03/30 11:31:23;;;;;;;23.05;8.98;;;12.00;99.90;;;;;;20674366;28;20519;-74
2022/03/30 11:41:24;;;;;;;25.02;8.65;;;12.10;99.90;;;;;;20673016;28;20031;-74
2022/03/30 11:51:27;;;;;;;27.43;9.13;;;13.00;99.90;;;;;;20671014;28;20445;-75
2022/03/30 12:01:28;;;;;;;22.13;7.18;;;14.20;99.90;;;;;;20671741;28;20485;-74
2022/03/30 12:11:30;;;;;;;;;;;14.30;99.90;;;;;;20655939;28;20121;-75
2022/03/30 12:21:34;;;;;;;30.60;9.02;;;14.30;99.90;;;;;;20669647;28;19921;-75
2022/03/30 12:31:40;;;;;;;17.45;6.55;;;14.40;99.90;;;;;;20673701;28;20109;-75
2022/03/30 12:41:41;;;;;;;19.83;5.72;;;14.60;99.90;;;;;;20668126;28;20579;-74
2022/03/30 12:51:42;;;;;;;22.27;6.23;;;14.90;99.90;;;;;;20667354;28;20034;-74
2022/03/30 13:01:45;;;;;;;14.63;6.10;;;14.50;99.90;;;;;;20666314;28;20080;-74
2022/03/30 13:11:49;;;;;;;17.98;5.85;;;14.00;99.90;;;;;;20665363;28;20451;-74
2022/03/30 13:21:50;;;;;;;19.48;6.90;;;14.00;99.90;;;;;;20664965;28;20109;-74
2022/03/30 13:31:51;;;;;;;14.13;3.88;;;13.90;99.90;;;;;;20664333;28;20030;-74
2022/03/30 13:41:53;;;;;;;18.43;3.70;;;11.70;99.90;;;;;;20663725;28;20468;-75
2022/03/30 13:51:54;;;;;;;17.40;3.67;;;11.40;99.90;;;;;;20663810;28;20038;-75
2022/03/30 14:01:55;;;;;;;20.27;5.97;;;12.00;99.90;;;;;;20645023;28;20118;-76
2022/03/30 14:11:56;;;;;;;15.23;3.73;;;12.40;99.90;;;;;;20667761;28;20033;-75
2022/03/30 14:21:57;;;;;;;19.17;5.17;;;11.90;99.90;;;;;;20662229;28;20054;-76
2022/03/30 14:31:59;;;;;;;24.83;6.43;;;11.10;99.90;;;;;;20662974;28;20034;-77
2022/03/30 14:42:00;;;;;;;;;;;10.80;99.90;;;;;;20662366;28;20452;-77
2022/03/30 14:52:00;;;;;;;15.77;5.38;;;10.00;99.90;;;;;;20661280;28;20008;-77
2022/03/30 15:02:01;;;;;;;27.40;4.67;;;9.80;99.90;;;;;;20643546;28;20105;-76
2022/03/30 15:12:03;;;;;;;20.07;4.90;;;9.70;99.90;;;;;;20660297;28;20109;-76
2022/03/30 15:22:05;;;;;;;;;;;9.90;99.90;;;;;;20663373;28;20069;-76
2022/03/30 15:32:06;;;;;;;19.38;5.35;;;10.00;99.90;;;;;;20867706;23;20378;-76
2022/03/30 15:42:07;;;;;;;19.33;4.80;;;10.30;99.90;;;;;;20918680;28;20024;-75
2022/03/30 15:52:07;;;;;;;13.77;4.77;;;10.60;99.90;;;;;;20918689;28;20036;-75
2022/03/30 16:02:10;;;;;;;18.57;4.67;;;10.60;99.90;;;;;;20917250;28;20025;-76
2022/03/30 16:12:12;;;;;;;16.80;5.85;;;10.80;99.90;;;;;;20919192;28;20037;-76
2022/03/30 16:22:14;;;;;;;21.23;6.00;;;10.80;99.90;;;;;;20918075;28;20041;-74
2022/03/30 16:32:14;;;;;;;;;;;10.50;99.90;;;;;;20978522;28;20033;-76
2022/03/30 16:42:16;;;;;;;20.17;5.40;;;10.60;99.90;;;;;;20996971;28;20324;-76
2022/03/30 16:52:17;;;;;;;23.95;5.80;;;10.80;99.90;;;;;;20977642;28;20035;-77
2022/03/30 17:02:18;;;;;;;21.23;6.00;;;10.60;99.90;;;;;;20988240;28;20025;-77
2022/03/30 17:12:18;;;;;;;21.00;6.03;;;10.60;99.90;;;;;;20898730;28;20505;-76
2022/03/30 17:22:25;;;;;;;24.50;6.43;;;10.10;99.90;;;;;;20878997;28;20065;-75
2022/03/30 17:32:26;;;;;;;17.98;5.45;;;9.80;99.90;;;;;;20829366;28;20029;-76
2022/03/30 17:42:28;;;;;;;16.57;5.60;;;9.90;99.90;;;;;;20884806;28;20029;-77
2022/03/30 17:52:31;;;;;;;20.77;5.13;;;9.90;99.90;;;;;;20907819;28;20060;-76
2022/03/30 18:02:32;;;;;;;15.18;5.40;;;9.80;99.90;;;;;;20894935;28;20049;-77
2022/03/30 18:12:34;;;;;;;20.63;6.07;;;9.70;99.90;;;;;;20933422;28;20483;-77
2022/03/30 18:22:35;;;;;;;14.02;6.53;;;9.70;99.90;;;;;;20908013;28;20044;-76
2022/03/30 18:32:36;;;;;;;18.30;8.27;;;9.70;99.90;;;;;;20905938;28;20029;-76
2022/03/30 18:42:37;;;;;;;25.23;7.63;;;9.50;99.90;;;;;;20904657;28;20055;-75
2022/03/30 18:52:42;;;;;;;22.77;8.70;;;9.50;99.90;;;;;;20904688;28;20143;-76
2022/03/30 19:13:02;;;;;;;21.05;5.38;;;9.50;99.90;;;;;;20917665;28;20390;-76
2022/03/30 19:23:05;;;;;;;15.20;5.77;;;9.40;99.90;;;;;;20918756;28;20045;-76
2022/03/30 19:33:06;;;;;;;18.13;6.28;;;9.30;99.90;;;;;;20917901;28;20029;-77
2022/03/30 19:43:09;;;;;;;14.90;6.68;;;9.30;99.90;;;;;;20917861;28;20461;-77
2022/03/30 19:53:12;;;;;;;26.10;6.75;;;9.30;99.90;;;;;;20901524;28;20037;-77
2022/03/30 20:03:16;;;;;;;20.80;8.60;;;9.20;99.90;;;;;;20916088;28;20104;-76
2022/03/30 20:13:17;;;;;;;20.08;8.40;;;9.30;99.90;;;;;;20914065;28;20033;-76
2022/03/30 20:23:18;;;;;;;24.80;7.73;;;9.10;99.90;;;;;;20949347;28;20522;-76
2022/03/30 20:33:19;;;;;;;30.57;8.57;;;9.10;99.90;;;;;;20893495;28;20032;-75
2022/03/30 20:43:21;;;;;;;33.83;11.30;;;8.90;99.90;;;;;;20898211;28;20029;-76
2022/03/30 20:53:22;;;;;;;27.95;9.63;;;8.70;99.90;;;;;;20888636;28;20037;-75
2022/03/30 21:03:23;;;;;;;28.88;10.05;;;8.60;99.90;;;;;;20893905;28;20114;-76
2022/03/30 21:13:24;;;;;;;31.20;10.40;;;8.60;99.90;;;;;;20894092;28;20631;-75
2022/03/30 21:23:25;;;;;;;25.20;8.67;;;8.60;99.90;;;;;;20897106;28;20040;-76
2022/03/30 21:33:25;;;;;;;23.67;9.67;;;8.60;99.90;;;;;;20911809;23;20463;-75
2022/03/30 21:43:26;;;;;;;23.37;9.70;;;8.70;99.90;;;;;;20979863;28;20029;-76
2022/03/30 21:53:27;;;;;;;27.47;10.40;;;8.70;99.90;;;;;;20991465;28;20075;-76
2022/03/30 22:03:29;;;;;;;26.13;10.93;;;8.70;99.90;;;;;;20991118;28;20024;-76
2022/03/30 22:13:30;;;;;;;;;;;8.70;99.90;;;;;;20990859;28;20028;-76
2022/03/30 22:23:31;;;;;;;26.35;10.93;;;8.70;99.90;;;;;;20972547;28;19912;-76
2022/03/30 22:43:51;;;;;;;27.02;10.02;;;8.60;99.90;;;;;;21006150;28;20033;-76
2022/03/30 22:53:52;;;;;;;23.63;9.53;;;8.50;99.90;;;;;;20987006;28;20032;-77
2022/03/30 23:03:53;;;;;;;29.88;10.10;;;8.60;99.90;;;;;;21008494;28;20038;-75
2022/03/30 23:13:55;;;;;;;30.07;11.63;;;8.60;99.90;;;;;;21003224;28;20435;-76
2022/03/30 23:23:56;;;;;;;31.20;11.35;;;8.50;99.90;;;;;;21002449;28;20036;-75
2022/03/30 23:33:57;;;;;;;20.93;11.03;;;8.50;99.90;;;;;;21002372;28;20033;-76
2022/03/30 23:43:57;;;;;;;35.83;11.60;;;8.40;99.90;;;;;;21001204;28;20028;-77
2022/03/30 23:53:58;;;;;;;26.20;11.43;;;8.50;99.90;;;;;;21000067;28;20040;-76
